sensor_id;sensor_type;location;lat;lon;timestamp;P1;durP1;ratioP1;P2;durP2;ratioP2
74945;SDS011;63509;45.250;38.102;2023-02-03T00:01:35;25.48;;;10.10;;
74945;SDS011;63509;45.250;38.102;2023-02-03T00:04:01;33.85;;;10.48;;
74945;SDS011;63509;45.250;38.102;2023-02-03T00:06:27;31.52;;;12.02;;
74945;SDS011;63509;45.250;38.102;2023-02-03T00:08:55;23.77;;;10.95;;
74945;SDS011;63509;45.250;38.102;2023-02-03T00:11:24;25.65;;;10.75;;
74945;SDS011;63509;45.250;38.102;2023-02-03T00:13:50;21.90;;;10.57;;
74945;SDS011;63509;45.250;38.102;2023-02-03T00:16:16;23.80;;;9.40;;
74945;SDS011;63509;45.250;38.102;2023-02-03T00:18:42;22.30;;;10.27;;
74945;SDS011;63509;45.250;38.102;2023-02-03T00:21:08;28.17;;;10.40;;
74945;SDS011;63509;45.250;38.102;2023-02-03T00:23:34;19.85;;;7.53;;
74945;SDS011;63509;45.250;38.102;2023-02-03T00:26:11;24.23;;;10.57;;
74945;SDS011;63509;45.250;38.102;2023-02-03T00:28:41;26.58;;;8.63;;
74945;SDS011;63509;45.250;38.102;2023-02-03T00:31:13;17.67;;;8.07;;
74945;SDS011;63509;45.250;38.102;2023-02-03T00:33:41;16.83;;;9.35;;
74945;SDS011;63509;45.250;38.102;2023-02-03T00:36:07;20.98;;;10.98;;
74945;SDS011;63509;45.250;38.102;2023-02-03T00:38:34;15.18;;;8.65;;
74945;SDS011;63509;45.250;38.102;2023-02-03T00:41:00;18.65;;;9.15;;
74945;SDS011;63509;45.250;38.102;2023-02-03T00:43:27;14.60;;;8.23;;
74945;SDS011;63509;45.250;38.102;2023-02-03T00:45:53;21.67;;;10.05;;
74945;SDS011;63509;45.250;38.102;2023-02-03T00:48:19;25.27;;;12.65;;
74945;SDS011;63509;45.250;38.102;2023-02-03T00:50:46;20.48;;;10.63;;
74945;SDS011;63509;45.250;38.102;2023-02-03T00:53:12;16.40;;;8.82;;
74945;SDS011;63509;45.250;38.102;2023-02-03T00:55:38;20.58;;;9.35;;
74945;SDS011;63509;45.250;38.102;2023-02-03T00:58:04;16.10;;;10.25;;
74945;SDS011;63509;45.250;38.102;2023-02-03T01:00:30;20.65;;;10.10;;
74945;SDS011;63509;45.250;38.102;2023-02-03T01:02:56;17.80;;;9.95;;
74945;SDS011;63509;45.250;38.102;2023-02-03T01:05:22;13.55;;;6.95;;
74945;SDS011;63509;45.250;38.102;2023-02-03T01:07:48;20.48;;;9.32;;
74945;SDS011;63509;45.250;38.102;2023-02-03T01:10:14;17.35;;;10.07;;
74945;SDS011;63509;45.250;38.102;2023-02-03T01:12:41;26.08;;;10.38;;
74945;SDS011;63509;45.250;38.102;2023-02-03T01:15:07;31.40;;;9.60;;
74945;SDS011;63509;45.250;38.102;2023-02-03T01:17:33;21.50;;;11.75;;
74945;SDS011;63509;45.250;38.102;2023-02-03T01:19:59;18.08;;;9.82;;
74945;SDS011;63509;45.250;38.102;2023-02-03T01:22:27;25.73;;;10.85;;
74945;SDS011;63509;45.250;38.102;2023-02-03T01:24:55;23.27;;;9.70;;
74945;SDS011;63509;45.250;38.102;2023-02-03T01:27:21;20.40;;;10.38;;
74945;SDS011;63509;45.250;38.102;2023-02-03T01:29:47;20.40;;;10.02;;
74945;SDS011;63509;45.250;38.102;2023-02-03T01:32:13;15.45;;;9.32;;
74945;SDS011;63509;45.250;38.102;2023-02-03T01:34:39;23.35;;;9.63;;
74945;SDS011;63509;45.250;38.102;2023-02-03T01:37:05;28.67;;;12.00;;
74945;SDS011;63509;45.250;38.102;2023-02-03T01:39:31;25.27;;;11.77;;
74945;SDS011;63509;45.250;38.102;2023-02-03T01:41:58;22.27;;;9.98;;
74945;SDS011;63509;45.250;38.102;2023-02-03T01:44:34;17.50;;;10.10;;
74945;SDS011;63509;45.250;38.102;2023-02-03T01:47:03;18.75;;;10.70;;
74945;SDS011;63509;45.250;38.102;2023-02-03T01:52:32;16.48;;;9.82;;
74945;SDS011;63509;45.250;38.102;2023-02-03T01:54:59;17.98;;;9.43;;
74945;SDS011;63509;45.250;38.102;2023-02-03T01:57:33;18.48;;;10.20;;
74945;SDS011;63509;45.250;38.102;2023-02-03T02:00:05;24.73;;;9.48;;
74945;SDS011;63509;45.250;38.102;2023-02-03T02:02:39;22.70;;;9.98;;
74945;SDS011;63509;45.250;38.102;2023-02-03T02:05:15;34.63;;;8.73;;
74945;SDS011;63509;45.250;38.102;2023-02-03T02:07:48;21.50;;;9.57;;
74945;SDS011;63509;45.250;38.102;2023-02-03T02:10:15;12.52;;;7.70;;
74945;SDS011;63509;45.250;38.102;2023-02-03T02:12:42;16.58;;;8.43;;
74945;SDS011;63509;45.250;38.102;2023-02-03T02:15:08;31.27;;;8.75;;
74945;SDS011;63509;45.250;38.102;2023-02-03T02:38:56;25.05;;;12.13;;
74945;SDS011;63509;45.250;38.102;2023-02-03T02:41:27;18.08;;;9.05;;
74945;SDS011;63509;45.250;38.102;2023-02-03T02:44:17;19.92;;;10.40;;
74945;SDS011;63509;45.250;38.102;2023-02-03T02:47:04;19.75;;;8.23;;
74945;SDS011;63509;45.250;38.102;2023-02-03T02:50:25;19.58;;;9.98;;
74945;SDS011;63509;45.250;38.102;2023-02-03T02:52:28;18.23;;;8.65;;
74945;SDS011;63509;45.250;38.102;2023-02-03T02:57:25;24.52;;;9.80;;
74945;SDS011;63509;45.250;38.102;2023-02-03T02:59:52;15.43;;;9.02;;
74945;SDS011;63509;45.250;38.102;2023-02-03T03:02:18;24.50;;;11.10;;
74945;SDS011;63509;45.250;38.102;2023-02-03T03:04:45;22.63;;;11.18;;
74945;SDS011;63509;45.250;38.102;2023-02-03T03:07:16;23.75;;;9.57;;
74945;SDS011;63509;45.250;38.102;2023-02-03T03:09:47;22.05;;;11.55;;
74945;SDS011;63509;45.250;38.102;2023-02-03T03:12:23;18.20;;;10.88;;
74945;SDS011;63509;45.250;38.102;2023-02-03T03:14:59;31.58;;;10.70;;
74945;SDS011;63509;45.250;38.102;2023-02-03T03:17:34;33.42;;;11.07;;
74945;SDS011;63509;45.250;38.102;2023-02-03T03:20:11;21.65;;;10.63;;
74945;SDS011;63509;45.250;38.102;2023-02-03T03:22:44;17.73;;;10.10;;
74945;SDS011;63509;45.250;38.102;2023-02-03T03:25:16;19.85;;;10.48;;
74945;SDS011;63509;45.250;38.102;2023-02-03T03:27:49;21.13;;;10.60;;
74945;SDS011;63509;45.250;38.102;2023-02-03T03:30:22;28.45;;;10.50;;
74945;SDS011;63509;45.250;38.102;2023-02-03T03:32:53;17.58;;;9.90;;
74945;SDS011;63509;45.250;38.102;2023-02-03T03:35:20;23.90;;;11.32;;
74945;SDS011;63509;45.250;38.102;2023-02-03T03:40:56;32.35;;;9.93;;
74945;SDS011;63509;45.250;38.102;2023-02-03T03:43:29;21.90;;;11.90;;
74945;SDS011;63509;45.250;38.102;2023-02-03T03:46:18;31.77;;;11.00;;
74945;SDS011;63509;45.250;38.102;2023-02-03T03:49:01;24.10;;;11.18;;
74945;SDS011;63509;45.250;38.102;2023-02-03T03:51:30;27.00;;;12.00;;
74945;SDS011;63509;45.250;38.102;2023-02-03T03:54:02;30.55;;;11.20;;
74945;SDS011;63509;45.250;38.102;2023-02-03T03:56:40;25.20;;;11.75;;
74945;SDS011;63509;45.250;38.102;2023-02-03T03:59:23;22.90;;;10.90;;
74945;SDS011;63509;45.250;38.102;2023-02-03T04:01:53;22.27;;;10.48;;
74945;SDS011;63509;45.250;38.102;2023-02-03T04:04:21;25.35;;;10.15;;
74945;SDS011;63509;45.250;38.102;2023-02-03T04:06:49;20.20;;;12.15;;
74945;SDS011;63509;45.250;38.102;2023-02-03T04:09:18;22.73;;;10.02;;
74945;SDS011;63509;45.250;38.102;2023-02-03T04:11:45;25.27;;;11.85;;
74945;SDS011;63509;45.250;38.102;2023-02-03T04:14:27;28.50;;;10.57;;
74945;SDS011;63509;45.250;38.102;2023-02-03T04:16:54;18.85;;;10.35;;
74945;SDS011;63509;45.250;38.102;2023-02-03T04:19:22;22.20;;;9.45;;
74945;SDS011;63509;45.250;38.102;2023-02-03T04:21:48;26.90;;;10.82;;
74945;SDS011;63509;45.250;38.102;2023-02-03T04:24:14;17.40;;;10.40;;
74945;SDS011;63509;45.250;38.102;2023-02-03T04:26:40;25.33;;;10.40;;
74945;SDS011;63509;45.250;38.102;2023-02-03T04:29:06;31.73;;;11.68;;
74945;SDS011;63509;45.250;38.102;2023-02-03T04:31:32;17.58;;;9.82;;
74945;SDS011;63509;45.250;38.102;2023-02-03T04:33:58;21.67;;;12.30;;
74945;SDS011;63509;45.250;38.102;2023-02-03T04:36:24;24.85;;;10.07;;
74945;SDS011;63509;45.250;38.102;2023-02-03T04:38:50;23.17;;;11.10;;
74945;SDS011;63509;45.250;38.102;2023-02-03T04:41:16;23.55;;;12.40;;
74945;SDS011;63509;45.250;38.102;2023-02-03T04:43:42;20.45;;;11.65;;
74945;SDS011;63509;45.250;38.102;2023-02-03T04:46:08;29.02;;;12.80;;
74945;SDS011;63509;45.250;38.102;2023-02-03T04:48:35;26.50;;;11.68;;
74945;SDS011;63509;45.250;38.102;2023-02-03T04:51:01;46.08;;;16.65;;
74945;SDS011;63509;45.250;38.102;2023-02-03T04:53:29;25.92;;;14.43;;
74945;SDS011;63509;45.250;38.102;2023-02-03T04:55:55;24.13;;;11.98;;
74945;SDS011;63509;45.250;38.102;2023-02-03T04:58:22;32.53;;;13.70;;
74945;SDS011;63509;45.250;38.102;2023-02-03T05:00:48;29.58;;;15.07;;
74945;SDS011;63509;45.250;38.102;2023-02-03T05:03:14;28.02;;;15.63;;
74945;SDS011;63509;45.250;38.102;2023-02-03T05:05:40;35.40;;;17.05;;
74945;SDS011;63509;45.250;38.102;2023-02-03T05:08:06;45.70;;;15.65;;
74945;SDS011;63509;45.250;38.102;2023-02-03T05:10:32;21.48;;;11.80;;
74945;SDS011;63509;45.250;38.102;2023-02-03T05:12:58;27.15;;;11.93;;
74945;SDS011;63509;45.250;38.102;2023-02-03T05:15:24;35.72;;;13.57;;
74945;SDS011;63509;45.250;38.102;2023-02-03T05:17:51;29.25;;;12.88;;
74945;SDS011;63509;45.250;38.102;2023-02-03T05:20:17;24.75;;;14.57;;
74945;SDS011;63509;45.250;38.102;2023-02-03T05:22:43;49.00;;;14.60;;
74945;SDS011;63509;45.250;38.102;2023-02-03T05:25:09;31.00;;;14.18;;
74945;SDS011;63509;45.250;38.102;2023-02-03T05:27:38;35.25;;;13.40;;
74945;SDS011;63509;45.250;38.102;2023-02-03T05:30:06;28.05;;;13.85;;
74945;SDS011;63509;45.250;38.102;2023-02-03T05:32:33;38.55;;;17.50;;
74945;SDS011;63509;45.250;38.102;2023-02-03T05:34:59;24.58;;;13.88;;
74945;SDS011;63509;45.250;38.102;2023-02-03T05:37:25;24.40;;;11.82;;
74945;SDS011;63509;45.250;38.102;2023-02-03T05:39:51;25.35;;;13.15;;
74945;SDS011;63509;45.250;38.102;2023-02-03T05:42:17;28.88;;;11.35;;
74945;SDS011;63509;45.250;38.102;2023-02-03T05:44:43;35.08;;;10.25;;
74945;SDS011;63509;45.250;38.102;2023-02-03T05:47:09;23.60;;;11.68;;
74945;SDS011;63509;45.250;38.102;2023-02-03T05:49:35;32.90;;;9.70;;
74945;SDS011;63509;45.250;38.102;2023-02-03T05:52:01;23.90;;;10.55;;
74945;SDS011;63509;45.250;38.102;2023-02-03T05:54:27;20.75;;;12.35;;
74945;SDS011;63509;45.250;38.102;2023-02-03T05:56:53;26.38;;;9.77;;
74945;SDS011;63509;45.250;38.102;2023-02-03T05:59:19;39.67;;;12.13;;
74945;SDS011;63509;45.250;38.102;2023-02-03T06:01:45;34.60;;;14.60;;
74945;SDS011;63509;45.250;38.102;2023-02-03T06:04:11;25.33;;;11.85;;
74945;SDS011;63509;45.250;38.102;2023-02-03T06:06:37;27.75;;;9.95;;
74945;SDS011;63509;45.250;38.102;2023-02-03T06:09:04;19.15;;;11.13;;
74945;SDS011;63509;45.250;38.102;2023-02-03T06:11:31;29.08;;;12.70;;
74945;SDS011;63509;45.250;38.102;2023-02-03T06:13:58;19.15;;;11.55;;
74945;SDS011;63509;45.250;38.102;2023-02-03T06:16:24;20.77;;;9.07;;
74945;SDS011;63509;45.250;38.102;2023-02-03T06:18:52;17.52;;;8.02;;
74945;SDS011;63509;45.250;38.102;2023-02-03T06:21:19;20.55;;;6.65;;
74945;SDS011;63509;45.250;38.102;2023-02-03T06:23:46;17.02;;;6.88;;
74945;SDS011;63509;45.250;38.102;2023-02-03T06:26:12;12.27;;;5.68;;
74945;SDS011;63509;45.250;38.102;2023-02-03T06:28:39;27.73;;;7.32;;
74945;SDS011;63509;45.250;38.102;2023-02-03T06:31:05;22.77;;;9.27;;
74945;SDS011;63509;45.250;38.102;2023-02-03T06:33:31;22.48;;;12.50;;
74945;SDS011;63509;45.250;38.102;2023-02-03T06:35:57;22.73;;;11.18;;
74945;SDS011;63509;45.250;38.102;2023-02-03T06:38:24;18.27;;;10.18;;
74945;SDS011;63509;45.250;38.102;2023-02-03T06:40:50;26.80;;;9.52;;
74945;SDS011;63509;45.250;38.102;2023-02-03T06:43:16;13.27;;;8.35;;
74945;SDS011;63509;45.250;38.102;2023-02-03T06:45:45;15.30;;;6.57;;
74945;SDS011;63509;45.250;38.102;2023-02-03T06:48:12;13.63;;;6.18;;
74945;SDS011;63509;45.250;38.102;2023-02-03T06:50:38;25.92;;;7.38;;
74945;SDS011;63509;45.250;38.102;2023-02-03T06:53:05;18.30;;;7.63;;
74945;SDS011;63509;45.250;38.102;2023-02-03T06:55:31;25.30;;;6.60;;
74945;SDS011;63509;45.250;38.102;2023-02-03T06:57:57;10.68;;;5.65;;
74945;SDS011;63509;45.250;38.102;2023-02-03T07:00:23;10.85;;;5.97;;
74945;SDS011;63509;45.250;38.102;2023-02-03T07:02:53;13.27;;;8.07;;
74945;SDS011;63509;45.250;38.102;2023-02-03T07:05:21;37.22;;;18.83;;
74945;SDS011;63509;45.250;38.102;2023-02-03T07:07:48;40.10;;;19.27;;
74945;SDS011;63509;45.250;38.102;2023-02-03T07:10:14;21.40;;;13.98;;
74945;SDS011;63509;45.250;38.102;2023-02-03T07:12:40;32.45;;;11.27;;
74945;SDS011;63509;45.250;38.102;2023-02-03T07:15:07;20.83;;;7.85;;
74945;SDS011;63509;45.250;38.102;2023-02-03T07:17:33;10.15;;;6.05;;
74945;SDS011;63509;45.250;38.102;2023-02-03T07:19:59;9.32;;;6.50;;
74945;SDS011;63509;45.250;38.102;2023-02-03T07:22:25;22.70;;;13.18;;
74945;SDS011;63509;45.250;38.102;2023-02-03T07:24:51;13.63;;;5.43;;
74945;SDS011;63509;45.250;38.102;2023-02-03T07:27:17;13.48;;;6.28;;
74945;SDS011;63509;45.250;38.102;2023-02-03T07:29:44;45.70;;;30.48;;
74945;SDS011;63509;45.250;38.102;2023-02-03T07:32:10;99.38;;;61.17;;
74945;SDS011;63509;45.250;38.102;2023-02-03T07:34:36;92.57;;;57.70;;
74945;SDS011;63509;45.250;38.102;2023-02-03T07:37:03;75.10;;;51.85;;
74945;SDS011;63509;45.250;38.102;2023-02-03T07:39:29;71.85;;;52.50;;
74945;SDS011;63509;45.250;38.102;2023-02-03T07:41:54;75.07;;;41.95;;
74945;SDS011;63509;45.250;38.102;2023-02-03T07:44:21;64.65;;;38.67;;
74945;SDS011;63509;45.250;38.102;2023-02-03T07:46:47;57.38;;;31.95;;
74945;SDS011;63509;45.250;38.102;2023-02-03T07:49:13;39.75;;;24.58;;
74945;SDS011;63509;45.250;38.102;2023-02-03T07:51:39;33.38;;;19.73;;
74945;SDS011;63509;45.250;38.102;2023-02-03T07:54:05;17.25;;;9.85;;
74945;SDS011;63509;45.250;38.102;2023-02-03T07:56:32;14.13;;;7.93;;
74945;SDS011;63509;45.250;38.102;2023-02-03T07:58:58;11.10;;;6.43;;
74945;SDS011;63509;45.250;38.102;2023-02-03T08:01:24;16.98;;;9.38;;
74945;SDS011;63509;45.250;38.102;2023-02-03T08:03:51;32.85;;;15.35;;
74945;SDS011;63509;45.250;38.102;2023-02-03T08:06:17;47.47;;;24.38;;
74945;SDS011;63509;45.250;38.102;2023-02-03T08:08:43;61.42;;;39.08;;
74945;SDS011;63509;45.250;38.102;2023-02-03T08:11:09;91.88;;;47.58;;
74945;SDS011;63509;45.250;38.102;2023-02-03T08:13:36;42.13;;;26.67;;
74945;SDS011;63509;45.250;38.102;2023-02-03T08:16:01;47.60;;;22.48;;
74945;SDS011;63509;45.250;38.102;2023-02-03T08:18:28;15.88;;;8.48;;
74945;SDS011;63509;45.250;38.102;2023-02-03T08:20:54;19.85;;;6.45;;
74945;SDS011;63509;45.250;38.102;2023-02-03T08:23:20;18.38;;;6.05;;
74945;SDS011;63509;45.250;38.102;2023-02-03T08:25:49;21.52;;;9.65;;
74945;SDS011;63509;45.250;38.102;2023-02-03T08:28:18;18.05;;;10.02;;
74945;SDS011;63509;45.250;38.102;2023-02-03T08:30:44;14.57;;;8.77;;
74945;SDS011;63509;45.250;38.102;2023-02-03T08:33:11;25.13;;;9.10;;
74945;SDS011;63509;45.250;38.102;2023-02-03T08:35:36;21.88;;;6.68;;
74945;SDS011;63509;45.250;38.102;2023-02-03T08:38:04;27.58;;;5.88;;
74945;SDS011;63509;45.250;38.102;2023-02-03T08:40:30;17.75;;;6.50;;
74945;SDS011;63509;45.250;38.102;2023-02-03T08:42:56;28.27;;;6.90;;
74945;SDS011;63509;45.250;38.102;2023-02-03T08:45:22;9.68;;;4.53;;
74945;SDS011;63509;45.250;38.102;2023-02-03T08:47:48;12.80;;;6.40;;
74945;SDS011;63509;45.250;38.102;2023-02-03T08:50:14;16.38;;;3.65;;
74945;SDS011;63509;45.250;38.102;2023-02-03T08:52:40;25.23;;;5.55;;
74945;SDS011;63509;45.250;38.102;2023-02-03T08:55:06;27.70;;;5.03;;
74945;SDS011;63509;45.250;38.102;2023-02-03T08:57:33;20.23;;;4.88;;
74945;SDS011;63509;45.250;38.102;2023-02-03T09:00:00;10.07;;;4.20;;
74945;SDS011;63509;45.250;38.102;2023-02-03T09:02:26;27.95;;;4.93;;
74945;SDS011;63509;45.250;38.102;2023-02-03T09:04:52;22.05;;;3.78;;
74945;SDS011;63509;45.250;38.102;2023-02-03T09:07:18;22.20;;;4.43;;
74945;SDS011;63509;45.250;38.102;2023-02-03T09:09:44;16.60;;;5.65;;
74945;SDS011;63509;45.250;38.102;2023-02-03T09:12:11;7.00;;;4.05;;
74945;SDS011;63509;45.250;38.102;2023-02-03T09:14:37;11.35;;;3.92;;
74945;SDS011;63509;45.250;38.102;2023-02-03T09:17:03;17.85;;;4.85;;
74945;SDS011;63509;45.250;38.102;2023-02-03T09:19:31;28.60;;;5.93;;
74945;SDS011;63509;45.250;38.102;2023-02-03T09:21:57;12.82;;;4.03;;
74945;SDS011;63509;45.250;38.102;2023-02-03T09:24:23;31.58;;;6.35;;
74945;SDS011;63509;45.250;38.102;2023-02-03T09:26:49;12.18;;;5.60;;
74945;SDS011;63509;45.250;38.102;2023-02-03T09:29:16;14.65;;;5.43;;
74945;SDS011;63509;45.250;38.102;2023-02-03T09:31:42;11.30;;;5.38;;
74945;SDS011;63509;45.250;38.102;2023-02-03T09:34:08;11.38;;;5.22;;
74945;SDS011;63509;45.250;38.102;2023-02-03T09:36:34;24.50;;;4.85;;
74945;SDS011;63509;45.250;38.102;2023-02-03T09:39:01;16.23;;;3.72;;
74945;SDS011;63509;45.250;38.102;2023-02-03T09:41:36;6.18;;;3.60;;
74945;SDS011;63509;45.250;38.102;2023-02-03T09:44:38;7.38;;;2.90;;
74945;SDS011;63509;45.250;38.102;2023-02-03T09:47:13;6.90;;;3.50;;
74945;SDS011;63509;45.250;38.102;2023-02-03T09:52:45;6.38;;;2.38;;
74945;SDS011;63509;45.250;38.102;2023-02-03T09:57:49;6.13;;;2.50;;
74945;SDS011;63509;45.250;38.102;2023-02-03T10:00:22;4.82;;;2.63;;
74945;SDS011;63509;45.250;38.102;2023-02-03T10:13:47;6.28;;;3.50;;
74945;SDS011;63509;45.250;38.102;2023-02-03T10:19:48;6.43;;;3.50;;
74945;SDS011;63509;45.250;38.102;2023-02-03T10:22:23;13.90;;;6.60;;
74945;SDS011;63509;45.250;38.102;2023-02-03T10:24:55;18.88;;;8.25;;
74945;SDS011;63509;45.250;38.102;2023-02-03T10:27:24;24.77;;;15.30;;
74945;SDS011;63509;45.250;38.102;2023-02-03T10:32:47;19.13;;;12.32;;
74945;SDS011;63509;45.250;38.102;2023-02-03T10:35:17;14.18;;;10.60;;
74945;SDS011;63509;45.250;38.102;2023-02-03T10:37:46;14.52;;;7.45;;
74945;SDS011;63509;45.250;38.102;2023-02-03T10:40:16;9.70;;;5.90;;
74945;SDS011;63509;45.250;38.102;2023-02-03T10:42:42;14.88;;;6.70;;
74945;SDS011;63509;45.250;38.102;2023-02-03T10:45:30;9.35;;;3.65;;
74945;SDS011;63509;45.250;38.102;2023-02-03T10:48:01;9.43;;;3.13;;
74945;SDS011;63509;45.250;38.102;2023-02-03T10:50:28;5.47;;;3.33;;
74945;SDS011;63509;45.250;38.102;2023-02-03T10:55:47;8.20;;;3.40;;
74945;SDS011;63509;45.250;38.102;2023-02-03T10:58:16;7.75;;;2.72;;
74945;SDS011;63509;45.250;38.102;2023-02-03T11:00:53;5.80;;;1.83;;
74945;SDS011;63509;45.250;38.102;2023-02-03T11:03:25;3.60;;;1.92;;
74945;SDS011;63509;45.250;38.102;2023-02-03T11:06:03;3.60;;;1.77;;
74945;SDS011;63509;45.250;38.102;2023-02-03T11:08:31;2.28;;;1.42;;
74945;SDS011;63509;45.250;38.102;2023-02-03T11:11:08;2.83;;;1.65;;
74945;SDS011;63509;45.250;38.102;2023-02-03T11:13:39;2.28;;;1.33;;
74945;SDS011;63509;45.250;38.102;2023-02-03T11:16:06;17.63;;;2.35;;
74945;SDS011;63509;45.250;38.102;2023-02-03T11:18:50;4.75;;;2.10;;
74945;SDS011;63509;45.250;38.102;2023-02-03T11:21:46;4.22;;;2.50;;
74945;SDS011;63509;45.250;38.102;2023-02-03T11:24:23;3.58;;;2.08;;
74945;SDS011;63509;45.250;38.102;2023-02-03T11:27:04;10.27;;;3.63;;
74945;SDS011;63509;45.250;38.102;2023-02-03T11:29:38;13.80;;;2.92;;
74945;SDS011;63509;45.250;38.102;2023-02-03T11:34:43;4.85;;;2.80;;
74945;SDS011;63509;45.250;38.102;2023-02-03T11:42:31;30.02;;;17.50;;
74945;SDS011;63509;45.250;38.102;2023-02-03T11:45:34;41.88;;;27.10;;
74945;SDS011;63509;45.250;38.102;2023-02-03T11:50:37;24.23;;;16.33;;
74945;SDS011;63509;45.250;38.102;2023-02-03T11:53:58;16.48;;;10.77;;
74945;SDS011;63509;45.250;38.102;2023-02-03T11:59:02;6.93;;;3.00;;
74945;SDS011;63509;45.250;38.102;2023-02-03T12:02:01;3.80;;;2.17;;
74945;SDS011;63509;45.250;38.102;2023-02-03T12:10:00;5.45;;;2.63;;
74945;SDS011;63509;45.250;38.102;2023-02-03T12:26:49;10.32;;;4.40;;
74945;SDS011;63509;45.250;38.102;2023-02-03T12:29:26;15.15;;;6.10;;
74945;SDS011;63509;45.250;38.102;2023-02-03T12:32:24;18.98;;;10.45;;
74945;SDS011;63509;45.250;38.102;2023-02-03T12:34:54;15.02;;;6.75;;
74945;SDS011;63509;45.250;38.102;2023-02-03T12:37:27;12.55;;;6.35;;
74945;SDS011;63509;45.250;38.102;2023-02-03T12:42:57;3.67;;;2.28;;
74945;SDS011;63509;45.250;38.102;2023-02-03T12:45:32;6.43;;;2.22;;
74945;SDS011;63509;45.250;38.102;2023-02-03T12:48:09;5.57;;;1.67;;
74945;SDS011;63509;45.250;38.102;2023-02-03T12:50:41;6.22;;;1.77;;
74945;SDS011;63509;45.250;38.102;2023-02-03T12:55:46;3.90;;;2.05;;
74945;SDS011;63509;45.250;38.102;2023-02-03T12:58:30;3.83;;;2.03;;
74945;SDS011;63509;45.250;38.102;2023-02-03T13:01:09;4.55;;;2.60;;
74945;SDS011;63509;45.250;38.102;2023-02-03T13:06:47;10.90;;;3.92;;
74945;SDS011;63509;45.250;38.102;2023-02-03T13:09:39;30.80;;;16.25;;
74945;SDS011;63509;45.250;38.102;2023-02-03T13:17:42;12.77;;;2.60;;
74945;SDS011;63509;45.250;38.102;2023-02-03T13:20:19;2.92;;;1.88;;
74945;SDS011;63509;45.250;38.102;2023-02-03T13:22:49;3.90;;;2.08;;
74945;SDS011;63509;45.250;38.102;2023-02-03T13:44:41;6.97;;;2.67;;
74945;SDS011;63509;45.250;38.102;2023-02-03T13:47:15;8.13;;;3.30;;
74945;SDS011;63509;45.250;38.102;2023-02-03T13:49:47;3.97;;;2.75;;
74945;SDS011;63509;45.250;38.102;2023-02-03T13:55:24;4.57;;;2.60;;
74945;SDS011;63509;45.250;38.102;2023-02-03T13:57:51;9.52;;;2.97;;
74945;SDS011;63509;45.250;38.102;2023-02-03T14:01:04;12.23;;;4.38;;
74945;SDS011;63509;45.250;38.102;2023-02-03T14:24:34;11.95;;;9.07;;
74945;SDS011;63509;45.250;38.102;2023-02-03T14:30:11;7.63;;;3.20;;
74945;SDS011;63509;45.250;38.102;2023-02-03T14:33:00;7.95;;;4.13;;
74945;SDS011;63509;45.250;38.102;2023-02-03T14:35:33;16.70;;;9.70;;
74945;SDS011;63509;45.250;38.102;2023-02-03T14:38:06;26.48;;;10.02;;
74945;SDS011;63509;45.250;38.102;2023-02-03T14:40:40;16.27;;;9.10;;
74945;SDS011;63509;45.250;38.102;2023-02-03T14:49:42;8.52;;;2.65;;
74945;SDS011;63509;45.250;38.102;2023-02-03T14:53:03;6.28;;;2.72;;
74945;SDS011;63509;45.250;38.102;2023-02-03T14:57:52;8.70;;;4.80;;
74945;SDS011;63509;45.250;38.102;2023-02-03T15:00:27;15.15;;;9.20;;
74945;SDS011;63509;45.250;38.102;2023-02-03T15:07:57;7.53;;;5.57;;
74945;SDS011;63509;45.250;38.102;2023-02-03T15:10:29;10.68;;;4.28;;
74945;SDS011;63509;45.250;38.102;2023-02-03T15:13:29;7.28;;;5.22;;
74945;SDS011;63509;45.250;38.102;2023-02-03T15:16:00;7.57;;;3.70;;
74945;SDS011;63509;45.250;38.102;2023-02-03T15:18:29;7.45;;;4.25;;
74945;SDS011;63509;45.250;38.102;2023-02-03T15:20:57;4.78;;;3.17;;
74945;SDS011;63509;45.250;38.102;2023-02-03T15:23:27;9.75;;;3.50;;
74945;SDS011;63509;45.250;38.102;2023-02-03T15:28:27;8.70;;;4.30;;
74945;SDS011;63509;45.250;38.102;2023-02-03T15:30:59;11.43;;;5.85;;
74945;SDS011;63509;45.250;38.102;2023-02-03T15:33:32;18.92;;;5.25;;
74945;SDS011;63509;45.250;38.102;2023-02-03T15:36:02;10.00;;;5.45;;
74945;SDS011;63509;45.250;38.102;2023-02-03T15:38:44;7.75;;;4.55;;
74945;SDS011;63509;45.250;38.102;2023-02-03T15:41:21;14.38;;;7.10;;
74945;SDS011;63509;45.250;38.102;2023-02-03T15:43:49;11.52;;;4.13;;
74945;SDS011;63509;45.250;38.102;2023-02-03T15:49:15;12.10;;;3.38;;
74945;SDS011;63509;45.250;38.102;2023-02-03T15:51:48;4.97;;;2.42;;
74945;SDS011;63509;45.250;38.102;2023-02-03T15:54:32;4.30;;;2.47;;
74945;SDS011;63509;45.250;38.102;2023-02-03T15:57:09;1.92;;;0.90;;
74945;SDS011;63509;45.250;38.102;2023-02-03T15:59:59;2.67;;;1.38;;
74945;SDS011;63509;45.250;38.102;2023-02-03T16:02:42;2.95;;;0.77;;
74945;SDS011;63509;45.250;38.102;2023-02-03T16:05:26;1.42;;;0.73;;
74945;SDS011;63509;45.250;38.102;2023-02-03T16:07:56;5.82;;;1.17;;
74945;SDS011;63509;45.250;38.102;2023-02-03T16:10:26;3.25;;;1.00;;
74945;SDS011;63509;45.250;38.102;2023-02-03T16:12:53;4.07;;;1.08;;
74945;SDS011;63509;45.250;38.102;2023-02-03T16:15:55;3.72;;;1.10;;
74945;SDS011;63509;45.250;38.102;2023-02-03T16:18:22;3.20;;;1.20;;
74945;SDS011;63509;45.250;38.102;2023-02-03T16:20:56;3.33;;;0.70;;
74945;SDS011;63509;45.250;38.102;2023-02-03T16:23:23;1.17;;;0.68;;
74945;SDS011;63509;45.250;38.102;2023-02-03T16:28:38;2.60;;;1.20;;
74945;SDS011;63509;45.250;38.102;2023-02-03T16:31:23;1.70;;;0.98;;
74945;SDS011;63509;45.250;38.102;2023-02-03T16:34:25;1.83;;;0.55;;
74945;SDS011;63509;45.250;38.102;2023-02-03T16:37:11;1.40;;;0.75;;
74945;SDS011;63509;45.250;38.102;2023-02-03T16:39:56;1.17;;;0.70;;
74945;SDS011;63509;45.250;38.102;2023-02-03T16:42:41;2.20;;;0.60;;
74945;SDS011;63509;45.250;38.102;2023-02-03T16:45:26;2.25;;;1.05;;
74945;SDS011;63509;45.250;38.102;2023-02-03T16:48:11;1.77;;;1.08;;
74945;SDS011;63509;45.250;38.102;2023-02-03T16:50:57;1.90;;;0.80;;
74945;SDS011;63509;45.250;38.102;2023-02-03T16:53:30;1.05;;;0.40;;
74945;SDS011;63509;45.250;38.102;2023-02-03T16:55:58;1.23;;;0.80;;
74945;SDS011;63509;45.250;38.102;2023-02-03T16:58:26;1.67;;;0.73;;
74945;SDS011;63509;45.250;38.102;2023-02-03T17:00:53;2.15;;;1.23;;
74945;SDS011;63509;45.250;38.102;2023-02-03T17:03:23;3.55;;;1.20;;
74945;SDS011;63509;45.250;38.102;2023-02-03T17:05:50;5.18;;;1.20;;
74945;SDS011;63509;45.250;38.102;2023-02-03T17:08:18;3.58;;;1.15;;
74945;SDS011;63509;45.250;38.102;2023-02-03T17:10:45;3.92;;;0.80;;
74945;SDS011;63509;45.250;38.102;2023-02-03T17:13:15;3.35;;;1.38;;
74945;SDS011;63509;45.250;38.102;2023-02-03T17:15:44;1.95;;;1.45;;
74945;SDS011;63509;45.250;38.102;2023-02-03T17:18:12;2.15;;;1.30;;
74945;SDS011;63509;45.250;38.102;2023-02-03T17:20:39;3.88;;;1.27;;
74945;SDS011;63509;45.250;38.102;2023-02-03T17:23:07;3.10;;;1.38;;
74945;SDS011;63509;45.250;38.102;2023-02-03T17:25:34;5.22;;;1.48;;
74945;SDS011;63509;45.250;38.102;2023-02-03T17:28:02;5.22;;;2.10;;
74945;SDS011;63509;45.250;38.102;2023-02-03T17:30:32;3.83;;;1.13;;
74945;SDS011;63509;45.250;38.102;2023-02-03T17:33:00;3.05;;;1.58;;